createdAt,value
2023-05-14T00:00:04.359Z,11.13
2023-05-14T00:02:33.142Z,10.52
2023-05-14T00:04:59.944Z,11.68
2023-05-14T00:07:31.007Z,10.25
2023-05-14T00:09:58.350Z,11.35
2023-05-14T00:12:26.534Z,11.18
2023-05-14T00:14:53.629Z,10.50
2023-05-14T00:17:20.310Z,11.70
2023-05-14T00:19:46.989Z,11.88
2023-05-14T00:22:13.722Z,12.38
2023-05-14T00:24:40.408Z,10.45
2023-05-14T00:27:07.469Z,11.27
2023-05-14T00:29:34.412Z,11.70
2023-05-14T00:32:01.308Z,11.45
2023-05-14T00:34:31.054Z,11.57
2023-05-14T00:36:57.753Z,11.70
2023-05-14T00:39:24.454Z,12.13
2023-05-14T00:41:51.152Z,12.50
2023-05-14T00:44:17.856Z,13.13
2023-05-14T00:46:44.756Z,11.93
2023-05-14T00:49:11.522Z,13.60
2023-05-14T00:51:38.485Z,12.82
2023-05-14T00:54:05.455Z,13.25
2023-05-14T00:56:32.173Z,12.35
2023-05-14T00:58:59.001Z,13.40
2023-05-14T01:01:28.831Z,13.18
2023-05-14T01:06:43.728Z,12.88
2023-05-14T01:09:30.551Z,11.40
2023-05-14T01:12:08.918Z,12.57
2023-05-14T01:14:54.099Z,12.80
2023-05-14T01:17:23.030Z,12.85
2023-05-14T01:19:51.753Z,13.00
2023-05-14T01:22:18.928Z,12.63
2023-05-14T01:24:45.603Z,14.32
2023-05-14T01:27:12.373Z,14.32
2023-05-14T01:29:40.721Z,13.35
2023-05-14T01:32:08.366Z,13.77
2023-05-14T01:34:36.120Z,13.25
2023-05-14T01:37:04.336Z,13.98
2023-05-14T01:39:34.278Z,13.35
2023-05-14T01:42:01.544Z,13.65
2023-05-14T01:44:28.273Z,13.90
2023-05-14T01:46:54.933Z,15.00
2023-05-14T01:49:21.733Z,14.35
2023-05-14T01:51:48.414Z,13.75
2023-05-14T01:54:15.439Z,14.27
2023-05-14T01:56:42.151Z,12.98
2023-05-14T01:59:08.863Z,15.13
2023-05-14T02:01:36.209Z,15.23
2023-05-14T02:04:03.338Z,14.15
2023-05-14T02:06:30.093Z,13.85
2023-05-14T02:08:56.820Z,13.48
2023-05-14T02:11:23.720Z,15.68
2023-05-14T02:13:50.527Z,14.65
2023-05-14T02:16:17.223Z,14.52
2023-05-14T02:18:43.953Z,13.88
2023-05-14T02:21:10.861Z,14.32
2023-05-14T02:23:41.851Z,15.02
2023-05-14T02:26:09.889Z,14.13
2023-05-14T02:28:36.627Z,14.35
2023-05-14T02:31:03.413Z,15.07
2023-05-14T02:33:30.312Z,15.50
2023-05-14T02:35:57.155Z,15.05
2023-05-14T02:38:24.062Z,16.23
2023-05-14T02:40:50.770Z,15.25
2023-05-14T02:43:17.483Z,14.30
2023-05-14T02:45:44.210Z,16.10
2023-05-14T02:48:11.015Z,15.55
2023-05-14T02:50:37.749Z,15.70
2023-05-14T02:53:04.473Z,15.77
2023-05-14T02:55:31.296Z,15.30
2023-05-14T02:57:57.972Z,17.58
2023-05-14T03:00:24.832Z,15.70
2023-05-14T03:02:52.105Z,17.58
2023-05-14T03:05:19.483Z,16.92
2023-05-14T03:07:46.185Z,16.70
2023-05-14T03:10:12.981Z,17.02
2023-05-14T03:12:39.721Z,16.15
2023-05-14T03:15:06.678Z,17.48
2023-05-14T03:17:33.895Z,17.00
2023-05-14T03:20:00.875Z,16.63
2023-05-14T03:22:27.626Z,15.82
2023-05-14T03:24:54.289Z,16.88
2023-05-14T03:27:21.195Z,15.50
2023-05-14T03:29:47.912Z,15.13
2023-05-14T03:32:15.180Z,18.88
2023-05-14T03:34:42.197Z,14.93
2023-05-14T03:37:08.880Z,16.38
2023-05-14T03:39:36.263Z,14.55
2023-05-14T03:42:04.975Z,16.75
2023-05-14T03:44:31.889Z,16.13
2023-05-14T03:46:58.746Z,15.18
2023-05-14T03:49:25.715Z,15.57
2023-05-14T03:51:52.427Z,16.42
2023-05-14T03:54:19.176Z,16.67
2023-05-14T03:56:46.223Z,17.30
2023-05-14T03:59:13.259Z,16.92
2023-05-14T04:01:40.001Z,16.60
2023-05-14T04:04:07.018Z,16.30
2023-05-14T04:06:34.104Z,16.60
2023-05-14T04:09:02.026Z,16.88
2023-05-14T04:11:28.727Z,17.05
2023-05-14T04:13:55.755Z,18.45
2023-05-14T04:16:22.731Z,16.45
2023-05-14T04:18:49.461Z,18.77
2023-05-14T04:21:16.248Z,16.48
2023-05-14T04:23:42.911Z,17.77
2023-05-14T04:26:09.585Z,17.77
2023-05-14T04:28:36.341Z,18.42
2023-05-14T04:31:03.022Z,17.42
2023-05-14T04:33:29.811Z,16.05
2023-05-14T04:35:56.460Z,16.23
2023-05-14T04:38:23.473Z,16.23
2023-05-14T04:40:50.149Z,16.98
2023-05-14T04:43:17.729Z,16.70
2023-05-14T04:45:44.416Z,16.30
2023-05-14T04:48:11.247Z,15.73
2023-05-14T04:50:37.935Z,16.08
2023-05-14T04:53:04.623Z,15.80
2023-05-14T04:55:31.357Z,15.73
2023-05-14T04:57:58.137Z,15.75
2023-05-14T05:00:24.954Z,16.70
2023-05-14T05:02:51.830Z,16.27
2023-05-14T05:05:18.880Z,16.00
2023-05-14T05:07:45.547Z,15.23
2023-05-14T05:10:12.297Z,15.00
2023-05-14T05:12:39.111Z,15.57
2023-05-14T05:15:06.458Z,15.80
2023-05-14T05:17:33.188Z,14.82
2023-05-14T05:19:59.903Z,15.38
2023-05-14T05:22:26.630Z,15.55
2023-05-14T05:24:53.306Z,16.60
2023-05-14T05:27:22.201Z,14.85
2023-05-14T05:29:48.909Z,14.65
2023-05-14T05:32:15.754Z,15.60
2023-05-14T05:34:42.678Z,14.35
2023-05-14T05:37:12.904Z,15.13
2023-05-14T05:39:39.871Z,14.50
2023-05-14T05:42:06.808Z,14.85
2023-05-14T05:44:33.490Z,13.63
2023-05-14T05:47:00.254Z,14.25
2023-05-14T05:49:27.027Z,14.60
2023-05-14T05:51:53.785Z,14.75
2023-05-14T05:54:20.471Z,17.08
2023-05-14T05:56:47.145Z,14.68
2023-05-14T05:59:13.831Z,15.40
2023-05-14T06:01:41.459Z,13.18
2023-05-14T06:04:08.125Z,13.38
2023-05-14T06:06:34.792Z,12.60
2023-05-14T06:09:02.220Z,12.00
2023-05-14T06:11:29.056Z,11.07
2023-05-14T06:13:55.821Z,14.02
2023-05-14T06:16:22.537Z,12.63
2023-05-14T06:18:49.602Z,11.25
2023-05-14T06:21:16.301Z,11.30
2023-05-14T06:23:42.946Z,11.07
2023-05-14T06:26:09.568Z,11.43
2023-05-14T06:28:36.277Z,10.80
2023-05-14T06:31:02.970Z,10.90
2023-05-14T06:33:31.229Z,11.70
2023-05-14T06:36:03.721Z,11.65
2023-05-14T06:38:30.479Z,11.98
2023-05-14T06:40:57.199Z,10.90
2023-05-14T06:43:23.990Z,11.55
2023-05-14T06:45:51.174Z,12.32
2023-05-14T06:48:21.692Z,11.68
2023-05-14T06:50:48.975Z,12.07
2023-05-14T06:53:15.976Z,11.80
2023-05-14T06:55:42.807Z,10.88
2023-05-14T06:58:09.562Z,10.88
2023-05-14T07:00:36.247Z,11.20
2023-05-14T07:03:03.034Z,11.50
2023-05-14T07:05:29.739Z,11.98
2023-05-14T07:07:56.502Z,10.27
2023-05-14T07:10:23.603Z,11.35
2023-05-14T07:12:50.749Z,9.85
2023-05-14T07:15:17.505Z,10.52
2023-05-14T07:17:44.204Z,11.05
2023-05-14T07:20:11.128Z,10.60
2023-05-14T07:22:37.867Z,11.70
2023-05-14T07:25:04.716Z,9.52
2023-05-14T07:27:31.462Z,10.38
2023-05-14T07:29:58.252Z,10.93
2023-05-14T07:32:25.595Z,11.18
2023-05-14T07:34:52.411Z,10.07
2023-05-14T07:37:19.142Z,10.15
2023-05-14T07:39:46.013Z,10.27
2023-05-14T07:42:21.893Z,10.07
2023-05-14T07:44:52.143Z,11.18
2023-05-14T07:47:19.504Z,10.18
2023-05-14T07:49:46.251Z,11.43
2023-05-14T07:52:12.900Z,11.25
2023-05-14T07:54:39.595Z,10.00
2023-05-14T07:57:06.252Z,9.82
2023-05-14T07:59:32.913Z,10.50
2023-05-14T08:01:59.605Z,11.48
2023-05-14T08:04:26.728Z,9.57
2023-05-14T08:06:53.472Z,10.18
2023-05-14T08:09:20.146Z,14.20
2023-05-14T08:11:46.889Z,9.60
2023-05-14T08:14:13.572Z,9.77
2023-05-14T08:16:40.273Z,9.10
2023-05-14T08:19:07.151Z,9.70
2023-05-14T08:21:34.161Z,9.10
2023-05-14T08:24:00.892Z,8.68
2023-05-14T08:26:27.657Z,8.30
2023-05-14T08:28:55.013Z,9.75
2023-05-14T08:31:21.716Z,8.63
2023-05-14T08:33:48.380Z,8.35
2023-05-14T08:36:15.047Z,9.35
2023-05-14T08:38:42.636Z,7.75
2023-05-14T08:41:09.369Z,7.75
2023-05-14T08:43:49.254Z,10.00
2023-05-14T08:46:17.626Z,10.70
2023-05-14T08:48:47.935Z,12.05
2023-05-14T08:51:14.652Z,9.05
2023-05-14T08:53:41.424Z,8.23
2023-05-14T08:56:09.224Z,7.82
2023-05-14T08:58:35.903Z,8.32
2023-05-14T09:01:02.750Z,8.65
2023-05-14T09:03:30.397Z,8.70
2023-05-14T09:05:59.968Z,8.20
2023-05-14T09:08:26.956Z,8.90
2023-05-14T09:10:53.626Z,8.73
2023-05-14T09:13:20.300Z,8.48
2023-05-14T09:15:48.196Z,9.48
2023-05-14T09:18:15.053Z,9.43
2023-05-14T09:20:41.936Z,8.63
2023-05-14T09:23:08.623Z,8.27
2023-05-14T09:25:35.286Z,7.93
2023-05-14T09:28:06.004Z,8.25
2023-05-14T09:30:34.358Z,8.88
2023-05-14T09:33:01.758Z,9.30
2023-05-14T09:35:28.531Z,8.38
2023-05-14T09:37:55.647Z,9.30
2023-05-14T09:40:23.994Z,8.27
2023-05-14T09:42:51.194Z,8.73
2023-05-14T09:45:18.136Z,9.10
2023-05-14T09:47:45.707Z,9.02
2023-05-14T09:50:12.715Z,9.35
2023-05-14T09:52:39.612Z,8.43
2023-05-14T09:55:06.638Z,8.65
2023-05-14T09:57:33.894Z,8.93
2023-05-14T10:00:00.689Z,9.27
2023-05-14T10:02:30.595Z,8.00
2023-05-14T10:05:00.523Z,8.50
2023-05-14T10:07:29.478Z,7.57
2023-05-14T10:10:01.977Z,7.05
2023-05-14T10:12:34.564Z,8.55
2023-05-14T10:15:07.087Z,8.43
2023-05-14T10:17:35.091Z,7.93
2023-05-14T10:20:03.008Z,7.60
2023-05-14T10:22:33.861Z,7.55
2023-05-14T10:25:01.065Z,6.93
2023-05-14T10:27:27.841Z,8.48
2023-05-14T10:29:55.346Z,8.63
2023-05-14T10:32:23.493Z,7.82
2023-05-14T10:34:50.170Z,6.85
2023-05-14T10:37:19.854Z,6.05
2023-05-14T10:39:47.704Z,4.95
2023-05-14T10:42:16.896Z,5.03
2023-05-14T10:45:09.694Z,4.57
2023-05-14T10:47:37.140Z,4.90
2023-05-14T10:50:05.182Z,4.43
2023-05-14T10:52:32.336Z,4.50
2023-05-14T10:55:03.160Z,5.22
2023-05-14T10:57:31.752Z,4.70
2023-05-14T10:59:59.776Z,3.45
2023-05-14T11:02:33.930Z,3.95
2023-05-14T11:05:05.269Z,3.92
2023-05-14T11:07:38.146Z,3.75
2023-05-14T11:10:08.153Z,5.07
2023-05-14T11:12:35.641Z,3.08
2023-05-14T11:15:04.103Z,3.78
2023-05-14T11:17:31.528Z,3.83
2023-05-14T11:19:58.891Z,3.60
2023-05-14T11:22:25.804Z,3.47
2023-05-14T11:24:52.624Z,3.72
2023-05-14T11:27:19.752Z,3.40
2023-05-14T11:29:46.940Z,3.45
2023-05-14T11:32:14.335Z,3.13
2023-05-14T11:34:41.736Z,3.60
2023-05-14T11:37:09.484Z,3.28
2023-05-14T11:39:37.679Z,3.25
2023-05-14T11:42:14.852Z,3.38
2023-05-14T11:44:42.452Z,3.17
2023-05-14T11:47:09.148Z,3.50
2023-05-14T11:49:37.595Z,3.53
2023-05-14T11:52:05.332Z,3.53
2023-05-14T11:54:32.566Z,3.45
2023-05-14T11:56:59.820Z,3.47
2023-05-14T11:59:31.735Z,3.28
2023-05-14T12:01:58.882Z,3.33
2023-05-14T12:04:25.910Z,3.47
2023-05-14T12:06:53.390Z,3.60
2023-05-14T12:09:20.873Z,3.50
2023-05-14T12:11:48.271Z,3.30
2023-05-14T12:14:15.676Z,3.40
2023-05-14T12:16:45.151Z,3.50
2023-05-14T12:19:12.374Z,3.67
2023-05-14T12:21:39.468Z,3.75
2023-05-14T12:24:10.372Z,3.55
2023-05-14T12:26:39.251Z,4.00
2023-05-14T12:29:08.941Z,3.50
2023-05-14T12:31:38.841Z,3.72
2023-05-14T12:34:05.848Z,4.15
2023-05-14T12:36:32.957Z,3.45
2023-05-14T12:39:04.075Z,4.00
2023-05-14T12:41:31.444Z,3.35
2023-05-14T12:43:58.618Z,3.50
2023-05-14T12:46:25.996Z,3.60
2023-05-14T12:48:53.537Z,3.85
2023-05-14T12:51:20.939Z,3.00
2023-05-14T12:53:47.816Z,3.22
2023-05-14T12:56:14.531Z,3.90
2023-05-14T12:58:41.334Z,3.35
2023-05-14T13:01:08.923Z,3.60
2023-05-14T13:03:35.708Z,3.33
2023-05-14T13:06:02.420Z,3.60
2023-05-14T13:08:29.124Z,3.50
2023-05-14T13:10:56.425Z,3.65
2023-05-14T13:13:23.504Z,3.60
2023-05-14T13:15:50.336Z,3.80
2023-05-14T13:18:17.803Z,3.72
2023-05-14T13:20:45.407Z,3.50
2023-05-14T13:23:12.095Z,3.83
2023-05-14T13:25:38.895Z,4.03
2023-05-14T13:28:05.543Z,3.70
2023-05-14T13:30:32.531Z,3.88
2023-05-14T13:32:59.800Z,3.83
2023-05-14T13:35:26.680Z,3.47
2023-05-14T13:37:53.413Z,3.83
2023-05-14T13:40:20.130Z,3.97
2023-05-14T13:42:46.788Z,4.00
2023-05-14T13:45:13.455Z,3.90
2023-05-14T13:47:40.435Z,3.40
2023-05-14T13:50:07.943Z,4.00
2023-05-14T13:52:34.697Z,3.80
2023-05-14T13:55:01.820Z,4.18
2023-05-14T13:57:28.459Z,3.80
2023-05-14T13:59:55.159Z,3.33
2023-05-14T14:02:22.187Z,3.50
2023-05-14T14:04:49.687Z,4.25
2023-05-14T14:07:16.401Z,3.85
2023-05-14T14:09:43.099Z,4.55
2023-05-14T14:12:09.986Z,3.70
2023-05-14T14:14:36.711Z,4.00
2023-05-14T14:17:03.427Z,3.83
2023-05-14T14:19:30.237Z,4.13
2023-05-14T14:21:56.984Z,4.07
2023-05-14T14:24:23.612Z,3.92
2023-05-14T14:26:50.344Z,3.90
2023-05-14T14:29:17.008Z,4.05
2023-05-14T14:31:43.832Z,3.95
2023-05-14T14:34:10.532Z,4.28
2023-05-14T14:36:37.290Z,4.25
2023-05-14T14:39:04.464Z,3.97
2023-05-14T14:41:31.264Z,3.97
2023-05-14T14:43:58.031Z,4.40
2023-05-14T14:46:24.833Z,4.43
2023-05-14T14:48:51.908Z,4.00
2023-05-14T14:51:18.701Z,4.07
2023-05-14T14:53:45.698Z,4.20
2023-05-14T14:56:12.398Z,4.05
2023-05-14T14:58:39.303Z,4.03
2023-05-14T15:01:06.114Z,4.47
2023-05-14T15:03:32.948Z,4.32
2023-05-14T15:05:59.777Z,3.92
2023-05-14T15:08:27.717Z,4.40
2023-05-14T15:10:57.556Z,3.50
2023-05-14T15:13:24.852Z,3.33
2023-05-14T15:15:52.423Z,4.03
2023-05-14T15:18:19.202Z,4.20
2023-05-14T15:20:45.974Z,3.90
2023-05-14T15:23:12.672Z,3.47
2023-05-14T15:25:39.432Z,4.00
2023-05-14T15:28:07.152Z,3.55
2023-05-14T15:30:33.904Z,4.07
2023-05-14T15:33:00.882Z,4.30
2023-05-14T15:35:27.550Z,3.72
2023-05-14T15:37:55.654Z,3.70
2023-05-14T15:40:22.473Z,4.03
2023-05-14T15:42:49.314Z,3.85
2023-05-14T15:45:16.013Z,3.85
2023-05-14T15:47:42.723Z,3.50
2023-05-14T15:50:09.626Z,4.30
2023-05-14T15:52:36.736Z,4.10
2023-05-14T15:55:05.465Z,4.57
2023-05-14T15:57:32.192Z,3.70
2023-05-14T15:59:58.878Z,4.07
2023-05-14T16:02:26.034Z,4.60
2023-05-14T16:04:52.737Z,4.10
2023-05-14T16:07:19.402Z,4.28
2023-05-14T16:09:46.055Z,4.45
2023-05-14T16:12:12.801Z,4.47
2023-05-14T16:14:41.808Z,4.13
2023-05-14T16:17:08.829Z,4.00
2023-05-14T16:19:35.509Z,4.30
2023-05-14T16:22:02.159Z,3.50
2023-05-14T16:24:28.897Z,3.38
2023-05-14T16:26:56.186Z,4.05
2023-05-14T16:29:22.940Z,4.40
2023-05-14T16:31:49.985Z,4.43
2023-05-14T16:34:16.880Z,3.95
2023-05-14T16:36:43.728Z,4.03
2023-05-14T16:39:11.646Z,4.43
2023-05-14T16:41:38.332Z,4.57
2023-05-14T16:44:05.254Z,4.20
2023-05-14T16:46:32.498Z,4.57
2023-05-14T16:48:59.357Z,4.57
2023-05-14T16:51:26.037Z,4.72
2023-05-14T16:53:54.672Z,4.75
2023-05-14T16:58:49.346Z,3.50
2023-05-14T17:01:16.059Z,4.93
2023-05-14T17:03:43.665Z,4.40
2023-05-14T17:06:10.574Z,4.38
2023-05-14T17:08:37.272Z,4.68
2023-05-14T17:11:06.062Z,4.63
2023-05-14T17:13:33.314Z,4.00
2023-05-14T17:16:00.352Z,4.95
2023-05-14T17:18:27.239Z,4.82
2023-05-14T17:20:53.933Z,10.15
2023-05-14T17:23:20.746Z,5.03
2023-05-14T17:25:47.506Z,4.63
2023-05-14T17:28:14.305Z,4.57
2023-05-14T17:30:41.254Z,4.20
2023-05-14T17:33:11.719Z,4.95
2023-05-14T17:35:38.737Z,3.95
2023-05-14T17:38:05.582Z,4.10
2023-05-14T17:40:32.323Z,4.28
2023-05-14T17:42:59.010Z,4.38
2023-05-14T17:45:26.502Z,5.35
2023-05-14T17:47:53.632Z,4.90
2023-05-14T17:50:20.363Z,5.15
2023-05-14T17:52:47.781Z,4.65
2023-05-14T17:55:14.552Z,5.50
2023-05-14T17:57:42.306Z,6.80
2023-05-14T18:00:09.235Z,6.65
2023-05-14T18:02:39.077Z,7.03
2023-05-14T18:05:06.272Z,7.47
2023-05-14T18:07:33.691Z,8.63
2023-05-14T18:10:00.431Z,8.60
2023-05-14T18:12:27.720Z,11.82
2023-05-14T18:14:54.571Z,9.80
2023-05-14T18:17:21.362Z,10.38
2023-05-14T18:19:48.436Z,10.57
2023-05-14T18:22:15.829Z,10.50
2023-05-14T18:24:44.386Z,11.55
2023-05-14T18:27:11.319Z,11.63
2023-05-14T18:29:38.062Z,11.48
2023-05-14T18:32:05.235Z,12.23
2023-05-14T18:34:31.903Z,11.77
2023-05-14T18:36:58.674Z,14.45
2023-05-14T18:39:25.320Z,13.68
2023-05-14T18:41:52.365Z,16.15
2023-05-14T18:44:19.115Z,15.52
2023-05-14T18:46:46.020Z,15.43
2023-05-14T18:49:12.886Z,14.70
2023-05-14T18:51:39.605Z,15.68
2023-05-14T18:54:06.459Z,15.77
2023-05-14T18:56:33.198Z,15.65
2023-05-14T18:58:59.861Z,15.07
2023-05-14T19:01:26.642Z,14.32
2023-05-14T19:03:53.424Z,15.25
2023-05-14T19:06:20.247Z,17.45
2023-05-14T19:08:47.042Z,16.15
2023-05-14T19:11:13.749Z,15.05
2023-05-14T19:13:40.577Z,17.40
2023-05-14T19:16:07.305Z,16.75
2023-05-14T19:18:34.542Z,17.25
2023-05-14T19:21:01.284Z,17.83
2023-05-14T19:23:27.949Z,17.60
2023-05-14T19:25:54.668Z,18.50
2023-05-14T19:28:21.456Z,19.38
2023-05-14T19:30:48.205Z,17.40
2023-05-14T19:33:15.055Z,18.55
2023-05-14T19:35:41.841Z,18.38
2023-05-14T19:38:10.355Z,18.60
2023-05-14T19:40:37.224Z,20.23
2023-05-14T19:43:03.916Z,19.58
2023-05-14T19:45:30.660Z,18.52
2023-05-14T19:47:57.367Z,17.88
2023-05-14T19:50:24.180Z,20.73
2023-05-14T19:52:50.824Z,20.40
2023-05-14T19:55:17.564Z,20.83
2023-05-14T19:57:44.256Z,20.30
2023-05-14T20:00:11.402Z,19.27
2023-05-14T20:02:38.090Z,20.38
2023-05-14T20:05:06.911Z,21.80
2023-05-14T20:07:33.706Z,21.33
2023-05-14T20:10:00.561Z,18.45
2023-05-14T20:12:30.217Z,21.35
2023-05-14T20:17:23.775Z,21.45
2023-05-14T20:19:50.469Z,23.35
2023-05-14T20:22:17.130Z,21.30
2023-05-14T20:24:44.174Z,22.05
2023-05-14T20:27:10.910Z,25.27
2023-05-14T20:29:37.654Z,35.67
2023-05-14T20:32:04.537Z,22.08
2023-05-14T20:34:31.218Z,24.13
2023-05-14T20:36:58.410Z,23.90
2023-05-14T20:39:25.106Z,23.30
2023-05-14T20:41:51.803Z,23.55
2023-05-14T20:44:20.483Z,22.77
2023-05-14T20:46:47.592Z,23.75
2023-05-14T20:49:14.384Z,22.88
2023-05-14T20:51:41.084Z,24.70
2023-05-14T20:54:07.763Z,22.45
2023-05-14T20:56:36.647Z,22.25
2023-05-14T20:59:03.350Z,22.33
2023-05-14T21:01:30.036Z,22.50
2023-05-14T21:03:57.095Z,22.83
2023-05-14T21:06:23.917Z,23.67
2023-05-14T21:08:50.779Z,24.88
2023-05-14T21:11:17.594Z,23.88
2023-05-14T21:13:44.706Z,25.70
2023-05-14T21:16:12.927Z,24.48
2023-05-14T21:18:39.730Z,24.65
2023-05-14T21:21:06.476Z,24.77
2023-05-14T21:23:33.265Z,26.67
2023-05-14T21:26:00.047Z,24.92
2023-05-14T21:28:26.739Z,24.08
2023-05-14T21:30:53.531Z,24.55
2023-05-14T21:33:20.645Z,26.23
2023-05-14T21:35:47.673Z,24.92
2023-05-14T21:38:14.635Z,24.75
2023-05-14T21:40:41.359Z,25.33
2023-05-14T21:43:08.093Z,25.33
2023-05-14T21:45:35.094Z,26.88
2023-05-14T21:48:01.908Z,25.20
2023-05-14T21:50:28.703Z,26.42
2023-05-14T21:52:55.512Z,27.55
2023-05-14T21:55:22.760Z,28.10
2023-05-14T21:57:49.993Z,27.30
2023-05-14T22:00:23.445Z,27.77
2023-05-14T22:02:51.225Z,30.85
2023-05-14T22:05:18.109Z,28.02
2023-05-14T22:07:44.972Z,26.42
2023-05-14T22:10:13.013Z,27.70
2023-05-14T22:12:39.921Z,27.73
2023-05-14T22:15:06.885Z,29.02
2023-05-14T22:17:34.596Z,28.65
2023-05-14T22:20:01.643Z,27.98
2023-05-14T22:22:28.438Z,28.13
2023-05-14T22:24:55.871Z,27.98
2023-05-14T22:27:22.802Z,29.70
2023-05-14T22:29:49.470Z,28.38
2023-05-14T22:32:16.182Z,27.48
2023-05-14T22:34:42.839Z,27.75
2023-05-14T22:37:09.584Z,30.38
2023-05-14T22:39:36.286Z,29.27
2023-05-14T22:42:02.948Z,32.30
2023-05-14T22:44:30.049Z,29.70
2023-05-14T22:46:57.114Z,31.58
2023-05-14T22:49:23.974Z,30.67
2023-05-14T22:51:52.674Z,31.45
2023-05-14T22:54:19.363Z,32.90
2023-05-14T22:56:46.056Z,32.58
2023-05-14T22:59:12.745Z,32.25
2023-05-14T23:01:39.666Z,33.70
2023-05-14T23:04:06.488Z,33.40
2023-05-14T23:06:33.171Z,31.17
2023-05-14T23:08:59.827Z,33.13
2023-05-14T23:11:26.872Z,33.38
2023-05-14T23:13:53.534Z,32.92
2023-05-14T23:16:20.859Z,35.05
2023-05-14T23:18:47.691Z,31.85
2023-05-14T23:21:15.158Z,33.47
2023-05-14T23:23:41.827Z,33.70
2023-05-14T23:26:08.521Z,33.60
2023-05-14T23:28:35.254Z,34.05
2023-05-14T23:31:01.949Z,34.15
2023-05-14T23:33:28.670Z,32.67
2023-05-14T23:35:55.401Z,34.25
2023-05-14T23:38:22.240Z,34.80
2023-05-14T23:40:49.180Z,33.05
2023-05-14T23:43:15.857Z,33.60
2023-05-14T23:45:42.639Z,33.50
2023-05-14T23:48:09.556Z,34.90
2023-05-14T23:50:36.265Z,34.05
2023-05-14T23:53:02.948Z,34.63
2023-05-14T23:55:32.710Z,33.35
2023-05-14T23:57:59.425Z,32.92
